createdAt,value
2022-10-27T00:00:59.836Z,36.32
2022-10-27T00:04:05.689Z,35.83
2022-10-27T00:07:12.011Z,35.16
2022-10-27T00:10:21.926Z,34.61
2022-10-27T00:13:32.011Z,33.97
2022-10-27T00:16:37.760Z,34.40
2022-10-27T00:19:43.341Z,32.11
2022-10-27T00:22:49.193Z,30.99
2022-10-27T00:25:59.025Z,29.65
2022-10-27T00:29:07.206Z,29.62
2022-10-27T00:32:12.850Z,29.68
2022-10-27T00:35:18.704Z,29.95
2022-10-27T00:38:26.020Z,30.34
2022-10-27T00:41:35.331Z,30.54
2022-10-27T00:44:47.344Z,31.09
2022-10-27T00:47:53.810Z,30.80
2022-10-27T00:51:03.010Z,32.27
2022-10-27T00:54:09.369Z,34.26
2022-10-27T00:57:16.599Z,33.79
2022-10-27T01:00:25.353Z,34.76
2022-10-27T01:03:31.752Z,34.68
2022-10-27T01:06:39.486Z,35.18
2022-10-27T01:09:46.785Z,34.12
2022-10-27T01:12:54.019Z,33.74
2022-10-27T01:16:25.227Z,34.47
2022-10-27T01:20:12.512Z,34.74
2022-10-27T01:23:36.664Z,35.68
2022-10-27T01:26:54.998Z,35.83
2022-10-27T01:30:14.840Z,37.78
2022-10-27T01:33:36.092Z,37.31
2022-10-27T01:36:52.920Z,36.41
2022-10-27T01:40:09.596Z,37.23
2022-10-27T01:43:23.758Z,36.00
2022-10-27T01:46:29.685Z,37.33
2022-10-27T01:49:45.578Z,37.83
2022-10-27T01:52:54.421Z,35.96
2022-10-27T01:56:22.720Z,38.33
2022-10-27T02:00:04.453Z,39.22
2022-10-27T02:03:24.205Z,41.05
2022-10-27T02:06:41.540Z,40.20
2022-10-27T02:09:57.600Z,42.39
2022-10-27T02:13:06.390Z,42.01
2022-10-27T02:16:20.114Z,43.26
2022-10-27T02:19:32.341Z,44.31
2022-10-27T02:22:46.270Z,44.81
2022-10-27T02:26:02.740Z,46.52
2022-10-27T02:29:18.142Z,45.20
2022-10-27T02:32:29.010Z,45.17
2022-10-27T02:35:44.918Z,45.50
2022-10-27T02:38:56.120Z,46.61
2022-10-27T02:42:01.733Z,46.86
2022-10-27T02:45:08.380Z,48.02
2022-10-27T02:48:13.925Z,46.70
2022-10-27T02:51:19.580Z,47.97
2022-10-27T02:54:27.760Z,48.65
2022-10-27T02:57:33.333Z,49.24
2022-10-27T03:00:39.045Z,50.51
2022-10-27T03:03:46.074Z,50.05
2022-10-27T03:06:51.694Z,48.65
2022-10-27T03:09:59.976Z,46.35
2022-10-27T03:13:08.895Z,44.98
2022-10-27T03:16:14.546Z,46.17
2022-10-27T03:19:20.328Z,44.30
2022-10-27T03:22:29.720Z,45.06
2022-10-27T03:25:47.401Z,45.94
2022-10-27T03:28:53.898Z,43.67
2022-10-27T03:31:59.503Z,44.38
2022-10-27T03:35:05.124Z,41.62
2022-10-27T03:38:13.223Z,41.45
2022-10-27T03:41:21.407Z,41.37
2022-10-27T03:44:27.048Z,43.29
2022-10-27T03:47:32.649Z,43.21
2022-10-27T03:50:41.032Z,42.66
2022-10-27T03:53:46.596Z,41.22
2022-10-27T03:56:54.954Z,40.28
2022-10-27T04:00:00.504Z,38.99
2022-10-27T04:03:19.396Z,36.22
2022-10-27T04:06:24.931Z,36.33
2022-10-27T04:09:30.520Z,35.86
2022-10-27T04:12:41.110Z,36.36
2022-10-27T04:15:46.696Z,39.86
2022-10-27T04:18:52.705Z,43.30
2022-10-27T04:21:58.402Z,46.72
2022-10-27T04:25:05.763Z,46.82
2022-10-27T04:28:15.535Z,46.76
2022-10-27T04:31:21.225Z,47.20
2022-10-27T04:34:26.874Z,48.91
2022-10-27T04:37:32.543Z,48.19
2022-10-27T04:40:38.158Z,46.89
2022-10-27T04:43:46.606Z,44.27
2022-10-27T04:46:52.242Z,42.51
2022-10-27T04:50:10.113Z,41.14
2022-10-27T04:53:22.640Z,41.36
2022-10-27T04:56:29.180Z,43.10
2022-10-27T04:59:37.369Z,43.75
2022-10-27T05:02:43.045Z,45.27
2022-10-27T05:05:48.957Z,44.79
2022-10-27T05:12:01.072Z,47.34
2022-10-27T05:15:11.447Z,47.91
2022-10-27T05:18:20.707Z,48.43
2022-10-27T05:21:26.303Z,47.70
2022-10-27T05:24:32.010Z,46.71
2022-10-27T05:27:38.477Z,44.79
2022-10-27T05:30:46.747Z,45.97
2022-10-27T05:33:52.404Z,47.06
2022-10-27T05:36:57.997Z,48.53
2022-10-27T05:40:03.922Z,49.51
2022-10-27T05:43:09.653Z,48.09
2022-10-27T05:46:17.869Z,50.00
2022-10-27T05:49:23.475Z,47.92
2022-10-27T05:52:29.102Z,45.04
2022-10-27T05:55:36.272Z,44.31
2022-10-27T05:58:41.877Z,43.87
2022-10-27T06:01:50.230Z,44.42
2022-10-27T06:04:55.914Z,43.98
2022-10-27T06:08:01.815Z,43.70
2022-10-27T06:11:07.926Z,42.36
2022-10-27T06:14:15.902Z,41.40
2022-10-27T06:17:24.091Z,41.36
2022-10-27T06:20:29.796Z,43.08
2022-10-27T06:23:38.783Z,45.41
2022-10-27T06:26:44.327Z,43.62
2022-10-27T06:29:50.269Z,40.65
2022-10-27T06:32:58.469Z,40.69
2022-10-27T06:36:04.093Z,39.45
2022-10-27T06:39:09.850Z,37.93
2022-10-27T06:42:15.693Z,38.57
2022-10-27T06:45:29.371Z,37.39
2022-10-27T06:48:37.509Z,36.62
2022-10-27T06:51:43.215Z,38.29
2022-10-27T06:54:51.696Z,36.04
2022-10-27T06:58:00.706Z,38.25
2022-10-27T07:01:06.371Z,38.46
2022-10-27T07:04:14.727Z,39.17
2022-10-27T07:07:20.374Z,40.76
2022-10-27T07:10:26.112Z,40.62
2022-10-27T07:13:31.847Z,40.80
2022-10-27T07:16:37.549Z,42.79
2022-10-27T07:19:45.775Z,41.21
2022-10-27T07:22:51.427Z,41.58
2022-10-27T07:25:57.098Z,43.01
2022-10-27T07:29:02.804Z,43.56
2022-10-27T07:32:10.549Z,40.41
2022-10-27T07:35:19.606Z,39.43
2022-10-27T07:38:25.233Z,36.76
2022-10-27T07:41:34.150Z,33.65
2022-10-27T07:44:39.744Z,30.91
2022-10-27T07:47:49.650Z,30.03
2022-10-27T07:50:58.410Z,30.65
2022-10-27T07:54:03.994Z,29.48
2022-10-27T07:57:09.615Z,29.37
2022-10-27T08:00:19.031Z,29.89
2022-10-27T08:03:30.078Z,28.18
2022-10-27T08:06:38.770Z,29.03
2022-10-27T08:09:44.630Z,29.49
2022-10-27T08:12:50.173Z,29.46
2022-10-27T08:19:21.387Z,31.28
2022-10-27T08:22:29.739Z,31.63
2022-10-27T08:25:36.478Z,31.70
2022-10-27T08:28:42.093Z,32.31
2022-10-27T08:31:47.671Z,31.97
2022-10-27T08:34:53.256Z,32.23
2022-10-27T08:38:07.773Z,32.51
2022-10-27T08:41:28.791Z,31.69
2022-10-27T08:44:43.670Z,33.20
2022-10-27T08:47:51.504Z,32.84
2022-10-27T08:50:57.826Z,32.87
2022-10-27T08:54:10.604Z,33.05
2022-10-27T08:57:27.976Z,32.65
2022-10-27T09:00:47.434Z,33.31
2022-10-27T09:04:16.266Z,35.92
2022-10-27T09:07:35.749Z,34.77
2022-10-27T09:10:58.344Z,33.37
2022-10-27T09:14:31.921Z,31.26
2022-10-27T09:17:47.686Z,29.26
2022-10-27T09:21:06.707Z,30.19
2022-10-27T09:24:20.322Z,32.60
2022-10-27T09:27:29.086Z,29.50
2022-10-27T09:30:42.798Z,29.38
2022-10-27T09:34:00.009Z,34.51
2022-10-27T09:37:05.756Z,34.33
2022-10-27T09:40:17.447Z,34.85
2022-10-27T09:43:27.230Z,36.83
2022-10-27T09:46:35.202Z,37.40
2022-10-27T09:49:47.187Z,38.99
2022-10-27T09:52:53.659Z,37.82
2022-10-27T09:55:59.505Z,36.46
2022-10-27T09:59:10.470Z,36.27
2022-10-27T10:02:29.530Z,34.88
2022-10-27T10:05:39.618Z,33.88
2022-10-27T10:08:45.165Z,33.52
2022-10-27T10:11:50.731Z,33.51
2022-10-27T10:15:22.626Z,32.17
2022-10-27T10:18:33.139Z,31.53
2022-10-27T10:21:53.407Z,31.38
2022-10-27T10:25:14.581Z,28.43
2022-10-27T10:28:37.151Z,27.25
2022-10-27T10:31:45.638Z,22.85
2022-10-27T10:34:53.468Z,16.90
2022-10-27T10:38:04.218Z,13.68
2022-10-27T10:41:17.187Z,12.67
2022-10-27T10:44:23.091Z,13.68
2022-10-27T10:47:33.930Z,16.35
2022-10-27T10:50:51.149Z,13.96
2022-10-27T10:54:04.266Z,10.75
2022-10-27T10:57:32.059Z,10.81
2022-10-27T11:00:38.964Z,13.01
2022-10-27T11:03:55.381Z,15.99
2022-10-27T11:07:09.623Z,17.06
2022-10-27T11:10:22.336Z,11.17
2022-10-27T11:13:41.550Z,10.62
2022-10-27T11:16:58.823Z,12.76
2022-10-27T11:20:25.214Z,14.73
2022-10-27T11:23:46.605Z,13.09
2022-10-27T11:27:07.896Z,12.07
2022-10-27T11:30:28.153Z,10.35
2022-10-27T11:33:47.822Z,9.08
2022-10-27T11:37:05.052Z,9.62
2022-10-27T11:40:23.424Z,9.52
2022-10-27T11:43:42.017Z,12.26
2022-10-27T11:47:03.204Z,9.67
2022-10-27T11:50:16.605Z,12.07
2022-10-27T11:53:25.405Z,11.70
2022-10-27T11:56:53.161Z,12.77
2022-10-27T12:00:17.375Z,14.78
2022-10-27T12:03:54.678Z,15.00
2022-10-27T12:07:16.995Z,13.25
2022-10-27T12:10:39.338Z,11.70
2022-10-27T12:14:02.259Z,11.23
2022-10-27T12:17:20.198Z,11.47
2022-10-27T12:20:41.133Z,11.78
2022-10-27T12:23:59.372Z,11.80
2022-10-27T12:27:19.073Z,10.87
2022-10-27T12:30:31.921Z,12.89
2022-10-27T12:33:52.271Z,18.46
2022-10-27T12:37:13.567Z,15.19
2022-10-27T12:40:34.092Z,11.88
2022-10-27T12:43:59.149Z,11.91
2022-10-27T12:47:32.111Z,11.38
2022-10-27T12:50:56.466Z,11.94
2022-10-27T12:54:30.731Z,12.16
2022-10-27T12:57:54.660Z,13.00
2022-10-27T13:01:28.964Z,13.19
2022-10-27T13:05:07.328Z,14.50
2022-10-27T13:09:14.882Z,15.73
2022-10-27T13:12:49.187Z,17.95
2022-10-27T13:16:12.518Z,17.87
2022-10-27T13:23:26.234Z,15.59
2022-10-27T13:26:41.501Z,15.32
2022-10-27T13:29:56.979Z,17.10
2022-10-27T13:33:08.350Z,31.78
2022-10-27T13:36:23.023Z,22.99
2022-10-27T13:39:49.938Z,18.51
2022-10-27T13:42:58.402Z,18.15
2022-10-27T13:46:04.811Z,16.12
2022-10-27T13:49:32.955Z,15.69
2022-10-27T13:52:41.120Z,15.65
2022-10-27T13:55:48.643Z,16.53
2022-10-27T13:59:08.734Z,17.23
2022-10-27T14:02:39.744Z,16.33
2022-10-27T14:05:51.117Z,15.70
2022-10-27T14:09:03.943Z,16.21
2022-10-27T14:12:27.324Z,17.77
2022-10-27T14:15:37.685Z,16.00
2022-10-27T14:18:45.859Z,14.55
2022-10-27T14:21:55.279Z,13.23
2022-10-27T14:25:18.719Z,13.51
2022-10-27T14:28:27.428Z,12.47
2022-10-27T14:31:35.925Z,13.19
2022-10-27T14:34:41.537Z,13.90
2022-10-27T14:37:47.238Z,13.42
2022-10-27T14:40:55.625Z,18.24
2022-10-27T14:44:06.155Z,24.31
2022-10-27T14:47:19.331Z,16.70
2022-10-27T14:50:35.039Z,14.39
2022-10-27T14:53:41.406Z,13.44
2022-10-27T14:56:49.980Z,15.01
2022-10-27T14:59:55.610Z,15.58
2022-10-27T15:03:06.251Z,12.98
2022-10-27T15:06:22.140Z,13.36
2022-10-27T15:09:36.559Z,13.62
2022-10-27T15:12:50.163Z,13.47
2022-10-27T15:16:04.505Z,13.56
2022-10-27T15:19:19.007Z,13.87
2022-10-27T15:22:26.562Z,18.02
2022-10-27T15:25:35.580Z,52.24
2022-10-27T15:28:46.148Z,43.31
2022-10-27T15:32:01.731Z,27.49
2022-10-27T15:35:31.772Z,23.92
2022-10-27T15:38:37.739Z,28.57
2022-10-27T15:41:54.338Z,29.50
2022-10-27T15:45:46.237Z,31.20
2022-10-27T15:49:16.324Z,36.02
2022-10-27T15:52:29.439Z,37.33
2022-10-27T15:55:40.499Z,43.66
2022-10-27T15:59:05.925Z,45.95
2022-10-27T16:02:39.964Z,48.68
2022-10-27T16:05:49.742Z,54.52
2022-10-27T16:08:58.624Z,47.01
2022-10-27T16:12:04.369Z,42.97
2022-10-27T16:15:22.721Z,41.53
2022-10-27T16:18:37.469Z,39.76
2022-10-27T16:21:48.924Z,46.56
2022-10-27T16:24:54.783Z,51.18
2022-10-27T16:28:05.547Z,59.94
2022-10-27T16:31:25.480Z,61.29
2022-10-27T16:34:35.503Z,66.34
2022-10-27T16:37:41.124Z,63.75
2022-10-27T16:40:55.011Z,55.79
2022-10-27T16:44:03.339Z,71.10
2022-10-27T16:47:10.032Z,83.21
2022-10-27T16:50:18.511Z,82.34
2022-10-27T16:53:24.619Z,84.05
2022-10-27T16:56:30.184Z,73.33
2022-10-27T16:59:36.421Z,69.59
2022-10-27T17:02:43.094Z,64.66
2022-10-27T17:05:53.001Z,60.62
2022-10-27T17:08:59.601Z,58.38
2022-10-27T17:12:24.581Z,58.51
2022-10-27T17:15:30.270Z,73.66
2022-10-27T17:18:36.143Z,105.47
2022-10-27T17:21:57.494Z,82.87
2022-10-27T17:25:03.789Z,74.19
2022-10-27T17:28:09.459Z,81.35
2022-10-27T17:31:20.828Z,83.76
2022-10-27T17:34:36.611Z,104.73
2022-10-27T17:37:45.030Z,95.41
2022-10-27T17:40:54.529Z,92.79
2022-10-27T17:44:00.231Z,73.97
2022-10-27T17:47:05.853Z,72.82
2022-10-27T17:50:12.428Z,72.08
2022-10-27T17:53:20.874Z,58.35
2022-10-27T17:56:29.887Z,46.55
2022-10-27T17:59:40.404Z,48.35
2022-10-27T18:02:46.013Z,50.94
2022-10-27T18:05:51.618Z,48.09
2022-10-27T18:09:10.332Z,56.86
2022-10-27T18:12:15.901Z,61.30
2022-10-27T18:15:35.579Z,51.08
2022-10-27T18:18:42.453Z,53.96
2022-10-27T18:21:51.366Z,49.56
2022-10-27T18:24:59.643Z,47.66
2022-10-27T18:28:08.279Z,46.81
2022-10-27T18:31:16.567Z,45.02
2022-10-27T18:34:26.207Z,44.66
2022-10-27T18:37:31.851Z,47.23
2022-10-27T18:40:40.176Z,48.42
2022-10-27T18:43:50.003Z,51.64
2022-10-27T18:47:05.506Z,54.10
2022-10-27T18:50:12.537Z,58.02
2022-10-27T18:53:18.084Z,59.07
2022-10-27T18:56:31.896Z,64.97
2022-10-27T18:59:41.921Z,66.10
2022-10-27T19:02:53.326Z,70.46
2022-10-27T19:06:15.104Z,70.43
2022-10-27T19:09:22.173Z,66.44
2022-10-27T19:12:31.543Z,63.90
2022-10-27T19:15:37.837Z,69.16
2022-10-27T19:18:44.104Z,66.76
2022-10-27T19:21:49.666Z,60.39
2022-10-27T19:24:55.325Z,59.29
2022-10-27T19:28:03.481Z,60.89
2022-10-27T19:31:14.597Z,57.51
2022-10-27T19:34:23.099Z,55.90
2022-10-27T19:37:28.985Z,54.62
2022-10-27T19:40:39.754Z,54.87
2022-10-27T19:43:51.203Z,55.46
2022-10-27T19:46:57.274Z,54.47
2022-10-27T19:50:09.581Z,54.83
2022-10-27T19:53:35.762Z,54.90
2022-10-27T19:56:46.870Z,56.86
2022-10-27T19:59:55.114Z,56.80
2022-10-27T20:03:01.695Z,61.15
2022-10-27T20:06:09.351Z,61.34
2022-10-27T20:09:24.761Z,61.70
2022-10-27T20:12:30.519Z,60.90
2022-10-27T20:15:38.738Z,59.43
2022-10-27T20:18:54.143Z,59.38
2022-10-27T20:22:00.335Z,60.34
2022-10-27T20:25:06.137Z,58.28
2022-10-27T20:28:11.872Z,52.54
2022-10-27T20:31:20.143Z,50.75
2022-10-27T20:34:25.843Z,50.16
2022-10-27T20:37:36.670Z,52.02
2022-10-27T20:40:49.695Z,52.54
2022-10-27T20:43:57.470Z,50.93
2022-10-27T20:47:05.815Z,52.44
2022-10-27T20:50:12.950Z,54.75
2022-10-27T20:53:18.656Z,55.18
2022-10-27T20:56:26.789Z,55.74
2022-10-27T20:59:32.415Z,55.43
2022-10-27T21:02:51.439Z,53.71
2022-10-27T21:05:59.851Z,53.39
2022-10-27T21:09:15.751Z,52.41
2022-10-27T21:12:21.416Z,52.15
2022-10-27T21:15:27.224Z,53.03
2022-10-27T21:18:35.569Z,51.50
2022-10-27T21:21:44.031Z,50.16
2022-10-27T21:24:49.674Z,48.22
2022-10-27T21:27:55.684Z,47.35
2022-10-27T21:31:05.669Z,49.00
2022-10-27T21:34:14.124Z,51.19
2022-10-27T21:37:19.797Z,54.10
2022-10-27T21:40:26.627Z,54.12
2022-10-27T21:43:40.190Z,53.61
2022-10-27T21:46:45.915Z,52.98
2022-10-27T21:49:54.544Z,54.64
2022-10-27T21:53:00.120Z,56.29
2022-10-27T21:56:09.634Z,59.37
2022-10-27T21:59:15.429Z,59.20
2022-10-27T22:02:21.173Z,60.14
2022-10-27T22:05:29.373Z,61.12
2022-10-27T22:08:37.860Z,61.33
2022-10-27T22:11:46.515Z,61.52
2022-10-27T22:14:55.143Z,58.00
2022-10-27T22:18:15.634Z,59.36
2022-10-27T22:21:24.928Z,57.52
2022-10-27T22:24:30.555Z,59.69
2022-10-27T22:27:41.312Z,57.91
2022-10-27T22:30:46.843Z,58.98
2022-10-27T22:33:56.322Z,60.17
2022-10-27T22:37:04.623Z,62.34
2022-10-27T22:40:12.731Z,66.46
2022-10-27T22:43:18.369Z,70.09
2022-10-27T22:46:27.633Z,73.98
2022-10-27T22:49:33.703Z,73.09
2022-10-27T22:52:41.981Z,74.09
2022-10-27T22:55:47.612Z,72.76
2022-10-27T22:58:56.070Z,69.27
2022-10-27T23:02:01.811Z,67.82
2022-10-27T23:05:08.956Z,69.05
2022-10-27T23:08:17.268Z,69.04
2022-10-27T23:11:23.924Z,71.16
2022-10-27T23:14:29.541Z,71.02
2022-10-27T23:17:35.311Z,73.19
2022-10-27T23:20:40.817Z,70.07
2022-10-27T23:23:49.359Z,72.43
2022-10-27T23:26:56.270Z,72.73
2022-10-27T23:30:01.944Z,68.44
2022-10-27T23:33:07.686Z,66.85
2022-10-27T23:36:15.000Z,63.79
2022-10-27T23:39:25.994Z,64.23
2022-10-27T23:42:31.589Z,63.74
2022-10-27T23:45:37.134Z,64.61
2022-10-27T23:48:42.788Z,64.38
2022-10-27T23:51:48.537Z,63.74
2022-10-27T23:54:56.777Z,62.77
2022-10-27T23:58:02.434Z,68.31
